Saturday, November 18, 2017, 1:13 AM EST
Back to Local

KFVE, Northern Aroostook Regional

Location: Saint Agatha, ME, United States Lat: 47.283
Local Time: 1:13 AM EST ( 6:13 GMT) Lon: -68.3
Time Zone: US/Eastern Elev: 987 ft

Show me the last for .
Show Decoded

2017-11-18 00:53 METAR KFVE 180553Z AUTO 33011G25KT 10SM OVC014 M07/M10 A2974 RMK AO2 SLP084
                 T10721100 11061 21072 50005 =
2017-11-17 23:53 METAR KFVE 180453Z AUTO 32013G21KT 10SM OVC014 M07/M10 A2975 RMK AO2 SLP087
                 T10721100 400001072 =
2017-11-17 23:36 METAR KFVE 180436Z AUTO 31012G23KT 10SM OVC014 M07/M10 A2975 RMK AO2 T10721100 =
2017-11-17 22:53 METAR KFVE 180353Z AUTO 32014G30KT 10SM OVC016 M07/M10 A2974 RMK AO2 PK WND
                 32030/0347 SLP082 T10671100 =
2017-11-17 21:53 METAR KFVE 180253Z AUTO 32016G24KT 10SM OVC016 M07/M09 A2973 RMK AO2 PK WND
                 32029/0240 SLP078 T10671094 51015 =
2017-11-17 20:53 METAR KFVE 180153Z AUTO 31016G27KT 10SM OVC015 M07/M09 A2972 RMK AO2 PK WND
                 30031/0103 SLP078 T10671094 =
2017-11-17 19:53 METAR KFVE 180053Z AUTO 32016G25KT 10SM OVC015 M07/M09 A2971 RMK AO2 PK WND
                 32031/0029 SLP071 T10671094 =
2017-11-17 18:53 METAR KFVE 172353Z AUTO 32013G27KT 10SM OVC016 M06/M09 A2968 RMK AO2 PK WND
                 31032/2324 SNB13E21 SLP062 P0000 60000 T10611089 11033 21061 51017 =
2017-11-17 17:53 METAR KFVE 172253Z AUTO 31018G29KT 10SM OVC015 M06/M08 A2967 RMK AO2 PK WND
                 32032/2238 SNE2158 SLP058 P0000 T10561083 =
2017-11-17 17:44 METAR KFVE 172244Z AUTO 32019G32KT 10SM OVC015 M06/M08 A2967 RMK AO2 PK WND
                 32032/2238 SNE2158 P0000 T10561083 =
2017-11-17 16:53 METAR KFVE 172153Z AUTO 31018G28KT 8SM -SN OVC013 M06/M08 A2965 RMK AO2 PK WND
                 32031/2101 SNB46 SLP052 P0000 T10561078 =
2017-11-17 15:53 METAR KFVE 172053Z AUTO 32021G30KT 10SM OVC012 M05/M07 A2963 RMK AO2 PK WND
                 30032/1954 SLP045 T10501072 53022 =
2017-11-17 14:53 METAR KFVE 171953Z AUTO 30021G29KT 10SM OVC012 M04/M07 A2961 RMK AO2 PK WND
                 31033/1917 SLP036 T10441067 =
2017-11-17 13:53 METAR KFVE 171853Z AUTO 31018G33KT 10SM OVC011 M03/M06 A2958 RMK AO2 PK WND
                 33034/1801 SLP026 T10331056 =
2017-11-17 12:53 METAR KFVE 171753Z AUTO 33022G34KT 10SM OVC010 M03/M05 A2956 RMK AO2 PK WND
                 31036/1741 SNB16E25 CIG 009V014 SLP021 P0000 60001 T10331050 10000 21033 51004 =
2017-11-17 11:53 METAR KFVE 171653Z AUTO 32020G30KT 10SM OVC011 M02/M04 A2956 RMK AO2 PK WND
                 31035/1618 SLP021 T10221044 =
2017-11-17 10:53 METAR KFVE 171553Z AUTO 32021G27KT 10SM OVC011 M02/M03 A2956 RMK AO2 PK WND
                 32036/1541 UPB24E30SNE24B30E31 SLP019 P0000 T10171033 =
2017-11-17 10:38 METAR KFVE 171538Z AUTO 32022G31KT 10SM OVC010 M01/M03 A2956 RMK AO2 PK WND
                 32032/1527 UPB24E30SNE24B30E31 P0000 T10111033 =
2017-11-17 10:23 METAR KFVE 171523Z AUTO 32019G31KT 7SM -SN BKN009 OVC014 M01/M03 A2956 RMK AO2
                 PK WND 33032/1455 P0000 T10111028 =
2017-11-17 10:16 METAR KFVE 171516Z AUTO 32022G31KT 3SM -SN BR SCT007 OVC012 M01/M02 A2956 RMK
                 AO2 PK WND 33032/1455 P0000 T10111022 =
2017-11-17 10:09 METAR KFVE 171509Z AUTO 32017G30KT 2SM -SN BR BKN009 OVC016 M01/M02 A2955 RMK
                 AO2 PK WND 33032/1455 P0000 T10061022 =
2017-11-17 10:06 METAR KFVE 171506Z AUTO 32022G30KT 1 1/2SM -SN BR SCT007 BKN013 OVC025 M01/M02
                 A2955 RMK AO2 PK WND 33032/1455 P0000 T10061022 =
2017-11-17 09:55 METAR KFVE 171455Z AUTO 32024G32KT 1 1/4SM -SN BR BKN009 BKN016 OVC021 M01/M02
                 A2955 RMK AO2 PK WND 33032/1455 P0000 T10061017 =
2017-11-17 09:53 METAR KFVE 171453Z AUTO 32021G28KT 1 1/2SM -SN BR BKN011 BKN018 OVC025 M01/M02
                 A2955 RMK AO2 PK WND 33032/1436 SNE03B19 SLP015 P0001 60001 T10061017 51010 =
2017-11-17 09:51 METAR KFVE 171451Z AUTO 32017G29KT 1 3/4SM -SN BR BKN011 BKN018 OVC025 M01/M02
                 A2955 RMK AO2 PK WND 33032/1436 SNE03B19 P0001 =
2017-11-17 09:44 METAR KFVE 171444Z AUTO 33022G32KT 3SM -SN BR SCT008 BKN013 OVC027 00/M02 A2955
                 RMK AO2 PK WND 33032/1436 SNE03B19 P0001 T00001017 =
2017-11-17 09:37 METAR KFVE 171437Z AUTO 33025G32KT 1 3/4SM -SN BR SCT008 OVC013 00/M02 A2955 RMK
                 AO2 PK WND 33032/1436 SNE03B19 P0001 T00001017 =
2017-11-17 09:27 METAR KFVE 171427Z AUTO 32022G28KT 2 1/2SM -SN BR OVC011 00/M02 A2955 RMK AO2 PK
                 WND 32032/1406 SNE03B19 P0001 T00001017 =
2017-11-17 08:53 METAR KFVE 171353Z AUTO 33019G31KT 3SM -SN BR OVC008 00/M02 A2955 RMK AO2 PK WND
                 33033/1310 SLP014 P0000 T00001017 =
2017-11-17 08:20 METAR KFVE 171320Z AUTO 33022G31KT 3SM -SN BR BKN008 OVC013 00/M02 A2954 RMK AO2
                 PK WND 33033/1310 P0000 T00001017 =
2017-11-17 08:13 METAR KFVE 171313Z AUTO 33020G33KT 1 3/4SM -SN BR BKN008 OVC013 00/M02 A2954 RMK
                 AO2 PK WND 33033/1310 P0000 T00001017 =
2017-11-17 07:53 METAR KFVE 171253Z AUTO 33021G29KT 1 1/4SM -SN BR BKN007 OVC015 00/M01 A2954 RMK
                 AO2 PK WND 34032/1217 SLP011 P0000 T00001011 =
2017-11-17 07:23 METAR KFVE 171223Z AUTO 33020G32KT 1 1/4SM -SN BR BKN007 BKN012 OVC023 00/M01
                 A2953 RMK AO2 PK WND 34032/1217 P0000 T00001011 =
2017-11-17 07:10 METAR KFVE 171210Z AUTO 34019G27KT 1 1/2SM -SN BR BKN007 BKN012 OVC025 00/M01
                 A2952 RMK AO2 PK WND 33027/1208 VIS 1 1/4V2 P0000 T00001011 =
2017-11-17 06:53 METAR KFVE 171153Z AUTO 33018G28KT 2SM -SN BR OVC007 00/M01 A2952 RMK AO2 PK WND
                 34028/1147 SLP005 P0001 60007 70020 T00001011 10000 20000 53005 =
2017-11-17 06:38 METAR KFVE 171138Z AUTO 33019G24KT 2SM -SN BR BKN006 OVC012 00/M01 A2951 RMK AO2
                 P0001 T00001011 =
2017-11-17 06:22 METAR KFVE 171122Z AUTO 33020G25KT 1 3/4SM -SN BR BKN007 OVC010 00/M01 A2951 RMK
                 AO2 P0001 T00001011 =
2017-11-17 06:09 METAR KFVE 171109Z AUTO 34015KT 1 3/4SM -SN BR BKN005 OVC009 00/M01 A2951 RMK
                 AO2 P0001 T00001011 =
2017-11-17 05:53 METAR KFVE 171053Z AUTO 34016G23KT 1 1/2SM -SN BR SCT005 OVC009 00/M01 A2951 RMK
                 AO2 SLP002 P0003 T00001011 =
2017-11-17 05:42 METAR KFVE 171042Z AUTO 34016G22KT 1 1/2SM -SN BR SCT005 OVC009 00/M01 A2951 RMK
                 AO2 P0003 T00001011 =
2017-11-17 04:59 METAR KFVE 170959Z AUTO 34013G19KT 1 1/4SM -SN BR SCT003 OVC009 00/M01 A2951 RMK
                 AO2 P0001 T00001011 =
2017-11-17 04:53 METAR KFVE 170953Z AUTO 34011G18KT 1 1/2SM -SN BR BKN003 OVC009 00/M01 A2951 RMK
                 AO2 SLP002 P0002 T00001011 =
2017-11-17 04:43 METAR KFVE 170943Z AUTO 35012G20KT 1 1/2SM -SN BR BKN003 OVC011 00/M01 A2951 RMK
                 AO2 P0002 T00001011 =
2017-11-17 04:30 METAR KFVE 170930Z AUTO 34013KT 1 3/4SM -SN BR OVC003 00/M01 A2951 RMK AO2 P0001
                 T00001011 =
2017-11-17 04:23 METAR KFVE 170923Z AUTO 35013G18KT 2SM -SN BR OVC003 00/M01 A2951 RMK AO2 P0001
                 T00001011 =
2017-11-17 04:09 METAR KFVE 170909Z AUTO 35011G16KT 4SM -SN BR OVC003 00/M01 A2950 RMK AO2 P0000
                 T00001011 =
2017-11-17 03:53 METAR KFVE 170853Z AUTO 35012G18KT 2 1/2SM -SN BR OVC003 00/M01 A2950 RMK AO2
                 SLP999 P0001 60001 T00001006 56022 =
2017-11-17 03:12 METAR KFVE 170812Z AUTO 35010G17KT 3SM -SN BR OVC002 00/M01 A2951 RMK AO2 P0000
                 T00001011 =
2017-11-17 03:07 METAR KFVE 170807Z AUTO 35011KT 1 3/4SM -SN BR OVC002 00/M01 A2950 RMK AO2 P0000
                 T00001011 =
2017-11-17 02:57 METAR KFVE 170757Z AUTO 35010KT 1 1/4SM -SN BR OVC002 00/M01 A2951 RMK AO2 P0000
                 T00001011 =
2017-11-17 02:53 METAR KFVE 170753Z AUTO 35009KT 1 3/4SM -SN BR OVC002 00/M01 A2951 RMK AO2
                 UPB41E46SNB46 SLP003 P0000 T00001011 =
2017-11-17 02:44 METAR KFVE 170744Z AUTO 35009KT 2SM UP BR OVC002 00/M01 A2952 RMK AO2 UPB41
                 P0000 T00001006 =
2017-11-17 02:34 METAR KFVE 170734Z AUTO 35009KT 3SM BR OVC002 00/M01 A2953 RMK AO2 T00001006 =
2017-11-17 02:16 METAR KFVE 170716Z AUTO 34009KT 2SM BR OVC002 00/M01 A2953 RMK AO2 VIS 1 1/4V3
                 T00001006 =
2017-11-17 02:13 METAR KFVE 170713Z AUTO 35008KT 1 1/2SM BR OVC002 00/M01 A2954 RMK AO2 VIS 3/4V3
                 T00001006 =
2017-11-17 01:53 METAR KFVE 170653Z AUTO 35010KT 1/2SM FG VV002 00/M01 A2953 RMK AO2 UPE19 SLP009
                 P0000 T00001006 =

Support USWX by starting your Amazon purchase here.